Terminal Aerodrome Forecast
Issued by NWS

Home | Current Version | Previous Version | Text Only | Print | Product List | Glossary On
Versions: 1 2 3 4 5 6 7 8 9 10 11 12 13 14 15 16 17 18 19 20 21 22 23 24 25 26 27 28 29 30 31 32 33 34 35 36
000
FTPQ31 PGUM 050526
TAFGUM
TAF

TAF
PGSN 050526Z 0506/0606 19004KT P6SM VCSH SCT015 SCT040 SCT100
     FM050800 19012KT P6SM VCSH SCT015 BKN050 BKN100
      TEMPO 0508/0512 19015G25KT 2SM +SHRA BKN011 BKN019 OVC035=

USA.gov is the U.S. government's official web portal to all federal, state and local government web resources and services.